createdAt,value
2019-03-29T00:01:56.428Z,78.68
2019-03-29T00:04:22.598Z,78.51
2019-03-29T00:06:48.758Z,78.70
2019-03-29T00:09:14.901Z,78.85
2019-03-29T00:11:41.023Z,79.16
2019-03-29T00:14:07.267Z,79.34
2019-03-29T00:16:33.436Z,79.29
2019-03-29T00:18:59.571Z,79.62
2019-03-29T00:21:25.699Z,79.60
2019-03-29T00:24:05.957Z,79.45
2019-03-29T00:26:20.016Z,79.14
2019-03-29T00:28:46.157Z,79.00
2019-03-29T00:31:12.330Z,78.94
2019-03-29T00:33:38.455Z,78.87
2019-03-29T00:36:04.601Z,79.09
2019-03-29T00:38:30.837Z,79.31
2019-03-29T00:40:57.024Z,79.57
2019-03-29T00:43:23.062Z,79.55
2019-03-29T00:45:49.622Z,80.33
2019-03-29T00:48:15.804Z,80.52
2019-03-29T00:50:41.930Z,80.69
2019-03-29T00:53:08.951Z,81.59
2019-03-29T00:55:35.325Z,81.39
2019-03-29T00:58:01.451Z,81.03
2019-03-29T01:00:31.134Z,80.66
2019-03-29T01:02:55.995Z,80.31
2019-03-29T01:05:22.158Z,80.00
2019-03-29T01:07:48.283Z,79.78
2019-03-29T01:10:14.440Z,79.65
2019-03-29T01:12:40.665Z,79.51
2019-03-29T01:15:08.985Z,79.33
2019-03-29T01:17:35.291Z,79.62
2019-03-29T01:20:02.157Z,79.81
2019-03-29T01:22:28.281Z,79.96
2019-03-29T01:24:54.417Z,79.82
2019-03-29T01:27:20.491Z,79.70
2019-03-29T01:29:46.602Z,79.43
2019-03-29T01:32:12.774Z,79.27
2019-03-29T01:34:38.900Z,79.11
2019-03-29T01:37:05.105Z,79.03
2019-03-29T01:39:31.239Z,79.44
2019-03-29T01:41:57.366Z,79.64
2019-03-29T01:44:23.496Z,79.88
2019-03-29T01:46:49.622Z,80.49
2019-03-29T01:49:16.852Z,81.34
2019-03-29T01:51:42.994Z,81.44
2019-03-29T01:54:09.152Z,81.27
2019-03-29T01:56:35.283Z,80.97
2019-03-29T01:59:01.436Z,80.57
2019-03-29T02:01:28.383Z,80.33
2019-03-29T02:03:54.700Z,79.96
2019-03-29T02:06:20.929Z,79.54
2019-03-29T02:08:47.113Z,79.42
2019-03-29T02:11:13.380Z,79.58
2019-03-29T02:13:40.380Z,80.09
2019-03-29T02:16:06.535Z,80.10
2019-03-29T02:18:32.674Z,80.30
2019-03-29T02:20:58.822Z,80.36
2019-03-29T02:23:24.972Z,80.35
2019-03-29T02:25:51.092Z,80.10
2019-03-29T02:28:17.258Z,80.40
2019-03-29T02:30:43.504Z,80.23
2019-03-29T02:33:09.622Z,79.96
2019-03-29T02:35:35.747Z,79.64
2019-03-29T02:38:01.898Z,79.65
2019-03-29T02:40:28.038Z,79.40
2019-03-29T02:42:54.165Z,79.21
2019-03-29T02:45:20.217Z,79.11
2019-03-29T02:47:47.760Z,78.99
2019-03-29T02:50:14.498Z,79.09
2019-03-29T02:52:40.654Z,79.25
2019-03-29T02:55:07.551Z,79.29
2019-03-29T02:57:33.680Z,79.33
2019-03-29T02:59:59.797Z,79.40
2019-03-29T03:02:26.699Z,79.49
2019-03-29T03:04:53.048Z,79.62
2019-03-29T03:07:19.192Z,79.97
2019-03-29T03:09:45.365Z,80.05
2019-03-29T03:12:11.605Z,80.01
2019-03-29T03:14:37.763Z,79.70
2019-03-29T03:17:03.894Z,79.49
2019-03-29T03:19:30.030Z,79.40
2019-03-29T03:22:03.036Z,79.53
2019-03-29T03:24:26.607Z,79.64
2019-03-29T03:26:52.731Z,79.63
2019-03-29T03:29:18.824Z,79.60
2019-03-29T03:31:45.043Z,79.70
2019-03-29T03:34:11.225Z,79.48
2019-03-29T03:36:37.253Z,79.43
2019-03-29T03:39:06.111Z,79.51
2019-03-29T03:41:32.260Z,79.17
2019-03-29T03:43:58.491Z,78.93
2019-03-29T03:46:24.648Z,78.84
2019-03-29T03:48:50.771Z,78.77
2019-03-29T03:51:17.135Z,78.67
2019-03-29T03:53:43.420Z,78.64
2019-03-29T03:56:10.626Z,78.55
2019-03-29T03:58:37.816Z,78.72
2019-03-29T04:01:04.037Z,79.38
2019-03-29T04:03:30.174Z,79.49
2019-03-29T04:05:56.657Z,79.91
2019-03-29T04:08:22.811Z,80.14
2019-03-29T04:10:48.932Z,80.42
2019-03-29T04:13:15.077Z,80.15
2019-03-29T04:15:41.284Z,79.88
2019-03-29T04:18:07.440Z,80.43
2019-03-29T04:20:33.471Z,80.14
2019-03-29T04:22:59.502Z,80.01
2019-03-29T04:25:25.645Z,79.73
2019-03-29T04:27:51.798Z,79.46
2019-03-29T04:30:17.839Z,79.24
2019-03-29T04:32:43.979Z,79.28
2019-03-29T04:35:10.096Z,79.09
2019-03-29T04:37:36.134Z,79.02
2019-03-29T04:40:07.952Z,79.32
2019-03-29T04:42:31.508Z,79.83
2019-03-29T04:44:59.837Z,80.38
2019-03-29T04:47:25.626Z,79.97
2019-03-29T04:49:51.909Z,79.89
2019-03-29T04:52:18.036Z,80.06
2019-03-29T04:54:44.321Z,79.87
2019-03-29T04:57:10.287Z,80.11
2019-03-29T04:59:36.442Z,79.99
2019-03-29T05:02:02.765Z,79.76
2019-03-29T05:04:28.923Z,79.59
2019-03-29T05:06:55.086Z,79.43
2019-03-29T05:09:21.212Z,79.29
2019-03-29T05:11:47.346Z,79.36
2019-03-29T05:14:13.488Z,79.53
2019-03-29T05:16:39.622Z,79.42
2019-03-29T05:19:05.813Z,79.49
2019-03-29T05:21:31.930Z,79.67
2019-03-29T05:23:58.066Z,79.91
2019-03-29T05:26:25.573Z,80.20
2019-03-29T05:28:51.872Z,81.56
2019-03-29T05:31:17.919Z,81.69
2019-03-29T05:33:46.488Z,81.69
2019-03-29T05:36:12.755Z,81.56
2019-03-29T05:38:38.800Z,81.33
2019-03-29T05:41:05.037Z,80.95
2019-03-29T05:43:31.203Z,80.87
2019-03-29T05:45:57.502Z,81.23
2019-03-29T05:48:23.884Z,81.22
2019-03-29T05:50:49.959Z,81.72
2019-03-29T05:53:16.290Z,81.51
2019-03-29T05:55:48.110Z,81.39
2019-03-29T05:58:13.104Z,81.41
2019-03-29T06:00:39.408Z,81.78
2019-03-29T06:03:05.554Z,82.28
2019-03-29T06:05:31.740Z,82.61
2019-03-29T06:07:58.026Z,82.47
2019-03-29T06:10:24.241Z,82.23
2019-03-29T06:12:50.477Z,82.40
2019-03-29T06:15:16.622Z,82.33
2019-03-29T06:17:48.854Z,82.94
2019-03-29T06:20:11.724Z,83.12
2019-03-29T06:22:37.850Z,83.52
2019-03-29T06:25:06.186Z,83.80
2019-03-29T06:27:32.434Z,83.96
2019-03-29T06:29:58.580Z,84.60
2019-03-29T06:32:24.676Z,84.37
2019-03-29T06:34:50.885Z,84.71
2019-03-29T06:37:19.318Z,85.14
2019-03-29T06:39:46.865Z,85.18
2019-03-29T06:42:14.353Z,85.46
2019-03-29T06:44:40.464Z,86.04
2019-03-29T06:47:06.526Z,85.97
2019-03-29T06:49:32.658Z,85.95
2019-03-29T06:51:58.778Z,85.86
2019-03-29T06:54:25.086Z,85.74
2019-03-29T06:56:51.371Z,85.28
2019-03-29T06:59:17.398Z,84.76
2019-03-29T07:01:46.345Z,85.05
2019-03-29T07:04:13.427Z,86.03
2019-03-29T07:06:39.551Z,85.35
2019-03-29T07:09:05.739Z,85.71
2019-03-29T07:11:31.767Z,85.34
2019-03-29T07:13:58.265Z,85.07
2019-03-29T07:16:24.424Z,85.58
2019-03-29T07:18:50.469Z,85.45
2019-03-29T07:21:21.822Z,84.94
2019-03-29T07:23:44.635Z,85.61
2019-03-29T07:26:10.756Z,85.49
2019-03-29T07:28:36.884Z,85.32
2019-03-29T07:31:03.067Z,85.40
2019-03-29T07:33:29.746Z,85.15
2019-03-29T07:35:55.951Z,84.78
2019-03-29T07:38:22.132Z,84.59
2019-03-29T07:40:48.274Z,84.80
2019-03-29T07:43:14.431Z,84.78
2019-03-29T07:45:43.430Z,84.51
2019-03-29T07:48:09.711Z,84.85
2019-03-29T07:50:37.143Z,84.68
2019-03-29T07:53:06.194Z,84.81
2019-03-29T07:55:32.441Z,84.71
2019-03-29T07:57:58.811Z,84.41
2019-03-29T08:00:25.045Z,84.29
2019-03-29T08:02:51.163Z,84.49
2019-03-29T08:05:18.097Z,84.42
2019-03-29T08:07:45.919Z,84.15
2019-03-29T08:10:24.178Z,83.87
2019-03-29T08:12:41.265Z,83.65
2019-03-29T08:15:09.747Z,83.88
2019-03-29T08:17:37.985Z,83.57
2019-03-29T08:20:36.343Z,83.43
2019-03-29T08:25:24.666Z,82.10
2019-03-29T08:28:21.251Z,82.28
2019-03-29T08:30:34.705Z,82.88
2019-03-29T08:33:13.130Z,83.28
2019-03-29T08:35:39.419Z,82.57
2019-03-29T08:38:06.376Z,81.85
2019-03-29T08:40:32.791Z,81.26
2019-03-29T08:42:59.036Z,79.99
2019-03-29T08:45:27.137Z,76.80
2019-03-29T08:47:53.422Z,76.09
2019-03-29T08:50:19.673Z,76.11
2019-03-29T08:52:53.105Z,74.53
2019-03-29T08:55:19.251Z,73.74
2019-03-29T08:57:45.539Z,70.09
2019-03-29T09:00:11.966Z,66.35
2019-03-29T09:02:38.283Z,65.39
2019-03-29T09:05:04.633Z,64.04
2019-03-29T09:07:44.054Z,64.23
2019-03-29T09:09:59.016Z,62.29
2019-03-29T09:12:25.170Z,61.79
2019-03-29T09:14:51.193Z,62.15
2019-03-29T09:17:17.404Z,61.71
2019-03-29T09:19:43.510Z,61.35
2019-03-29T09:22:09.740Z,60.91
2019-03-29T09:24:35.883Z,60.56
2019-03-29T09:27:02.003Z,60.45
2019-03-29T09:29:28.227Z,60.68
2019-03-29T09:31:54.590Z,60.61
2019-03-29T09:34:23.501Z,60.03
2019-03-29T09:36:49.694Z,59.54
2019-03-29T09:39:15.861Z,59.20
2019-03-29T09:41:42.077Z,58.78
2019-03-29T09:44:08.393Z,57.33
2019-03-29T09:46:34.711Z,56.78
2019-03-29T09:49:00.871Z,57.77
2019-03-29T09:51:27.029Z,55.91
2019-03-29T09:53:53.178Z,56.87
2019-03-29T09:56:21.423Z,56.67
2019-03-29T09:58:47.724Z,56.89
2019-03-29T10:01:22.950Z,56.59
2019-03-29T10:03:51.342Z,56.58
2019-03-29T10:06:17.473Z,57.82
2019-03-29T10:08:43.645Z,57.30
2019-03-29T10:11:09.880Z,57.80
2019-03-29T10:13:36.003Z,56.29
2019-03-29T10:16:02.156Z,55.51
2019-03-29T10:18:34.578Z,55.28
2019-03-29T10:21:00.885Z,54.37
2019-03-29T10:23:32.978Z,54.60
2019-03-29T10:26:06.074Z,54.27
2019-03-29T10:28:32.570Z,54.87
2019-03-29T10:30:58.747Z,55.25
2019-03-29T10:33:25.061Z,54.60
2019-03-29T10:35:52.722Z,55.30
2019-03-29T10:38:19.216Z,55.09
2019-03-29T10:40:45.353Z,54.07
2019-03-29T10:43:11.465Z,53.31
2019-03-29T10:45:40.283Z,53.26
2019-03-29T10:48:05.643Z,53.85
2019-03-29T10:50:31.774Z,53.46
2019-03-29T10:52:57.905Z,54.21
2019-03-29T10:55:26.075Z,53.69
2019-03-29T10:57:55.373Z,53.20
2019-03-29T11:00:23.555Z,52.88
2019-03-29T11:02:49.851Z,52.27
2019-03-29T11:05:16.097Z,52.72
2019-03-29T11:07:42.336Z,53.08
2019-03-29T11:10:12.187Z,53.04
2019-03-29T11:12:38.407Z,53.03
2019-03-29T11:15:06.753Z,53.92
2019-03-29T11:17:33.239Z,53.49
2019-03-29T11:19:59.369Z,53.33
2019-03-29T11:22:25.584Z,52.93
2019-03-29T11:24:51.712Z,53.72
2019-03-29T11:27:17.981Z,52.97
2019-03-29T11:29:49.213Z,53.04
2019-03-29T11:32:17.881Z,51.85
2019-03-29T11:34:44.001Z,52.80
2019-03-29T11:37:10.321Z,53.10
2019-03-29T11:39:36.559Z,51.39
2019-03-29T11:42:03.662Z,50.76
2019-03-29T11:44:30.360Z,50.57
2019-03-29T11:46:56.684Z,50.50
2019-03-29T11:49:22.702Z,50.13
2019-03-29T11:51:48.823Z,50.18
2019-03-29T11:54:14.979Z,49.27
2019-03-29T11:56:41.101Z,49.88
2019-03-29T11:59:07.270Z,49.82
2019-03-29T12:01:33.455Z,50.05
2019-03-29T12:03:59.679Z,50.38
2019-03-29T12:06:25.807Z,49.39
2019-03-29T12:08:51.944Z,48.63
2019-03-29T12:11:18.076Z,49.25
2019-03-29T12:13:44.648Z,49.53
2019-03-29T12:16:10.777Z,49.42
2019-03-29T12:18:38.432Z,49.38
2019-03-29T12:21:04.556Z,49.49
2019-03-29T12:23:30.758Z,48.52
2019-03-29T12:25:56.876Z,48.71
2019-03-29T12:28:22.999Z,48.78
2019-03-29T12:30:49.223Z,48.72
2019-03-29T12:33:15.231Z,49.23
2019-03-29T12:35:41.418Z,48.79
2019-03-29T12:38:07.552Z,48.66
2019-03-29T12:40:33.602Z,48.71
2019-03-29T12:42:59.730Z,48.53
2019-03-29T12:45:25.900Z,48.29
2019-03-29T12:47:51.987Z,47.92
2019-03-29T12:50:18.152Z,47.73
2019-03-29T12:52:44.292Z,47.67
2019-03-29T12:55:10.432Z,48.34
2019-03-29T12:57:38.885Z,48.05
2019-03-29T13:00:06.298Z,47.72
2019-03-29T13:02:34.492Z,47.02
2019-03-29T13:05:00.466Z,46.51
2019-03-29T13:07:26.513Z,47.07
2019-03-29T13:09:53.199Z,47.20
2019-03-29T13:12:19.330Z,46.14
2019-03-29T13:14:45.472Z,46.54
2019-03-29T13:17:11.625Z,45.33
2019-03-29T13:19:38.822Z,44.96
2019-03-29T13:22:05.907Z,45.32
2019-03-29T13:24:31.927Z,45.54
2019-03-29T13:26:57.944Z,45.44
2019-03-29T13:29:24.127Z,45.01
2019-03-29T13:31:50.233Z,45.30
2019-03-29T13:34:16.368Z,44.99
2019-03-29T13:36:42.421Z,44.73
2019-03-29T13:39:08.965Z,44.54
2019-03-29T13:41:35.090Z,43.58
2019-03-29T13:44:01.217Z,43.03
2019-03-29T13:46:27.350Z,43.96
2019-03-29T13:48:53.371Z,43.90
2019-03-29T13:51:19.506Z,44.15
2019-03-29T13:53:45.523Z,44.31
2019-03-29T13:56:11.717Z,44.17
2019-03-29T13:58:37.845Z,43.57
2019-03-29T14:01:04.001Z,44.37
2019-03-29T14:03:30.045Z,44.69
2019-03-29T14:05:56.168Z,44.67
2019-03-29T14:08:22.295Z,45.29
2019-03-29T14:10:48.411Z,45.47
2019-03-29T14:13:14.565Z,46.22
2019-03-29T14:15:40.592Z,46.57
2019-03-29T14:18:06.751Z,47.45
2019-03-29T14:20:33.019Z,47.21
2019-03-29T14:23:00.467Z,46.51
2019-03-29T14:25:26.583Z,47.13
2019-03-29T14:27:52.627Z,47.15
2019-03-29T14:30:18.873Z,46.69
2019-03-29T14:32:45.453Z,46.98
2019-03-29T14:35:11.587Z,47.04
2019-03-29T14:37:37.610Z,47.43
2019-03-29T14:40:06.164Z,47.48
2019-03-29T14:42:33.171Z,47.57
2019-03-29T14:44:59.324Z,47.22
2019-03-29T14:47:38.154Z,47.45
2019-03-29T14:49:53.379Z,47.51
2019-03-29T14:52:19.512Z,47.67
2019-03-29T14:54:45.546Z,48.08
2019-03-29T14:57:11.590Z,47.96
2019-03-29T14:59:37.724Z,48.49
2019-03-29T15:02:03.955Z,48.00
2019-03-29T15:04:30.087Z,48.15
2019-03-29T15:06:56.206Z,48.04
2019-03-29T15:09:22.386Z,47.94
2019-03-29T15:11:48.471Z,47.79
2019-03-29T15:14:14.512Z,48.32
2019-03-29T15:16:40.629Z,48.63
2019-03-29T15:19:09.054Z,48.13
2019-03-29T15:21:35.289Z,47.85
2019-03-29T15:24:01.422Z,48.35
2019-03-29T15:26:27.545Z,48.74
2019-03-29T15:28:53.662Z,48.53
2019-03-29T15:31:19.814Z,48.47
2019-03-29T15:33:45.963Z,48.95
2019-03-29T15:36:12.179Z,48.64
2019-03-29T15:38:38.290Z,49.10
2019-03-29T15:41:04.504Z,49.19
2019-03-29T15:43:30.640Z,49.10
2019-03-29T15:45:56.760Z,49.32
2019-03-29T15:48:22.886Z,49.20
2019-03-29T15:50:49.016Z,49.31
2019-03-29T15:53:15.144Z,49.30
2019-03-29T15:55:41.270Z,49.33
2019-03-29T15:58:07.360Z,49.66
2019-03-29T16:00:33.485Z,49.58
2019-03-29T16:02:59.600Z,49.71
2019-03-29T16:05:25.842Z,49.63
2019-03-29T16:07:51.974Z,50.05
2019-03-29T16:10:18.130Z,50.43
2019-03-29T16:12:44.264Z,50.54
2019-03-29T16:15:10.395Z,50.81
2019-03-29T16:17:36.517Z,50.65
2019-03-29T16:20:04.273Z,50.81
2019-03-29T16:22:30.400Z,51.14
2019-03-29T16:24:56.559Z,51.14
2019-03-29T16:27:25.102Z,51.20
2019-03-29T16:29:50.651Z,51.22
2019-03-29T16:32:16.772Z,51.30
2019-03-29T16:34:46.962Z,51.53
2019-03-29T16:37:13.353Z,51.81
2019-03-29T16:39:39.643Z,51.68
2019-03-29T16:42:05.796Z,51.64
2019-03-29T16:44:32.061Z,50.98
2019-03-29T16:46:58.338Z,51.48
2019-03-29T16:49:26.453Z,51.72
2019-03-29T16:51:52.700Z,51.97
2019-03-29T16:54:19.403Z,51.79
2019-03-29T16:56:45.610Z,51.78
2019-03-29T16:59:11.833Z,52.00
2019-03-29T17:01:37.861Z,52.05
2019-03-29T17:04:04.015Z,51.97
2019-03-29T17:06:31.747Z,52.08
2019-03-29T17:08:57.969Z,52.16
2019-03-29T17:11:24.283Z,52.30
2019-03-29T17:13:50.466Z,52.37
2019-03-29T17:16:29.433Z,52.21
2019-03-29T17:18:46.307Z,52.40
2019-03-29T17:21:12.635Z,52.59
2019-03-29T17:23:40.334Z,52.88
2019-03-29T17:26:11.906Z,52.97
2019-03-29T17:28:38.135Z,53.72
2019-03-29T17:31:06.246Z,53.88
2019-03-29T17:33:32.386Z,54.06
2019-03-29T17:35:58.653Z,54.34
2019-03-29T17:38:24.803Z,54.43
2019-03-29T17:40:50.927Z,55.06
2019-03-29T17:43:17.289Z,55.65
2019-03-29T17:45:43.571Z,55.73
2019-03-29T17:48:09.870Z,56.09
2019-03-29T17:50:35.993Z,56.23
2019-03-29T17:53:02.117Z,56.44
2019-03-29T17:55:31.566Z,56.36
2019-03-29T17:57:56.488Z,56.93
2019-03-29T18:00:27.208Z,57.27
2019-03-29T18:02:53.504Z,57.15
2019-03-29T18:05:19.764Z,57.75
2019-03-29T18:07:45.902Z,58.19
2019-03-29T18:10:12.292Z,58.06
2019-03-29T18:12:42.915Z,57.95
2019-03-29T18:15:09.534Z,58.51
2019-03-29T18:17:35.635Z,58.69
2019-03-29T18:20:03.388Z,59.56
2019-03-29T18:22:31.563Z,59.58
2019-03-29T18:25:00.908Z,59.35
2019-03-29T18:27:26.980Z,59.74
2019-03-29T18:29:53.130Z,59.82
2019-03-29T18:32:19.377Z,59.44
2019-03-29T18:34:45.534Z,59.54
2019-03-29T18:37:13.017Z,59.54
2019-03-29T18:39:39.279Z,60.10
2019-03-29T18:42:05.483Z,60.20
2019-03-29T18:44:31.620Z,60.33
2019-03-29T18:46:57.856Z,60.40
2019-03-29T18:49:23.999Z,60.64
2019-03-29T18:51:50.227Z,60.89
2019-03-29T18:54:16.605Z,60.86
2019-03-29T18:56:42.870Z,61.22
2019-03-29T18:59:09.157Z,61.46
2019-03-29T19:01:35.411Z,61.32
2019-03-29T19:04:06.029Z,62.19
2019-03-29T19:06:29.826Z,62.14
2019-03-29T19:08:58.067Z,61.95
2019-03-29T19:11:26.243Z,62.77
2019-03-29T19:13:52.543Z,63.03
2019-03-29T19:16:18.799Z,62.61
2019-03-29T19:18:44.947Z,63.53
2019-03-29T19:21:11.273Z,63.57
2019-03-29T19:23:37.604Z,63.47
2019-03-29T19:26:06.783Z,63.85
2019-03-29T19:28:42.052Z,63.84
2019-03-29T19:31:06.587Z,63.53
2019-03-29T19:33:32.877Z,63.71
2019-03-29T19:36:02.903Z,63.48
2019-03-29T19:38:41.014Z,64.20
2019-03-29T19:41:07.148Z,63.96
2019-03-29T19:43:33.427Z,63.49
2019-03-29T19:45:59.553Z,63.34
2019-03-29T19:48:25.861Z,63.49
2019-03-29T19:50:51.998Z,63.25
2019-03-29T19:53:18.154Z,63.41
2019-03-29T19:55:47.189Z,64.37
2019-03-29T19:58:13.412Z,64.50
2019-03-29T20:00:40.350Z,64.90
2019-03-29T20:03:06.508Z,64.70
2019-03-29T20:05:32.637Z,64.73
2019-03-29T20:08:10.976Z,64.47
2019-03-29T20:10:37.185Z,64.67
2019-03-29T20:13:03.470Z,64.80
2019-03-29T20:15:29.786Z,65.27
2019-03-29T20:17:55.995Z,65.53
2019-03-29T20:20:29.135Z,65.40
2019-03-29T20:22:56.276Z,65.16
2019-03-29T20:25:23.212Z,65.24
2019-03-29T20:27:49.492Z,65.34
2019-03-29T20:30:16.054Z,65.92
2019-03-29T20:32:43.245Z,65.91
2019-03-29T20:35:09.380Z,66.33
2019-03-29T20:37:35.544Z,66.63
2019-03-29T20:40:02.488Z,67.28
2019-03-29T20:45:15.591Z,66.80
2019-03-29T20:47:42.724Z,66.14
2019-03-29T20:51:08.757Z,66.20
2019-03-29T20:53:39.168Z,66.34
2019-03-29T20:56:06.693Z,66.72
2019-03-29T20:58:33.178Z,66.89
2019-03-29T21:01:01.352Z,66.59
2019-03-29T21:03:27.636Z,66.31
2019-03-29T21:05:54.022Z,66.09
2019-03-29T21:08:20.343Z,66.14
2019-03-29T21:10:55.577Z,66.34
2019-03-29T21:13:16.572Z,66.32
2019-03-29T21:15:44.659Z,66.59
2019-03-29T21:18:10.838Z,66.59
2019-03-29T21:20:37.118Z,66.75
2019-03-29T21:23:03.417Z,66.94
2019-03-29T21:25:29.559Z,66.86
2019-03-29T21:27:55.787Z,66.81
2019-03-29T21:30:25.871Z,66.71
2019-03-29T21:32:53.835Z,66.59
2019-03-29T21:35:20.104Z,66.57
2019-03-29T21:37:48.427Z,66.65
2019-03-29T21:40:15.220Z,66.66
2019-03-29T21:42:41.463Z,66.77
2019-03-29T21:45:08.270Z,67.12
2019-03-29T21:47:37.950Z,66.92
2019-03-29T21:50:09.213Z,67.08
2019-03-29T21:52:39.054Z,67.00
2019-03-29T21:55:05.818Z,67.04
2019-03-29T21:57:31.987Z,67.15
2019-03-29T21:59:58.186Z,67.66
2019-03-29T22:02:24.469Z,67.85
2019-03-29T22:04:50.684Z,68.26
2019-03-29T22:07:18.727Z,68.07
2019-03-29T22:09:44.900Z,67.88
2019-03-29T22:12:11.158Z,67.76
2019-03-29T22:14:37.284Z,67.61
2019-03-29T22:17:03.558Z,67.62
2019-03-29T22:19:29.725Z,67.49
2019-03-29T22:21:55.883Z,67.74
2019-03-29T22:24:22.047Z,67.96
2019-03-29T22:26:48.167Z,67.90
2019-03-29T22:29:14.201Z,67.98
2019-03-29T22:31:40.278Z,68.86
2019-03-29T22:34:06.427Z,68.87
2019-03-29T22:36:32.475Z,68.88
2019-03-29T22:38:58.597Z,69.01
2019-03-29T22:41:24.753Z,68.92
2019-03-29T22:43:50.890Z,69.67
2019-03-29T22:46:18.059Z,69.46
2019-03-29T22:48:52.084Z,69.35
2019-03-29T22:51:12.002Z,69.43
2019-03-29T22:53:38.130Z,69.26
2019-03-29T22:56:04.065Z,70.29
2019-03-29T22:58:30.089Z,69.95
2019-03-29T23:00:56.530Z,69.72
2019-03-29T23:03:22.691Z,69.40
2019-03-29T23:05:48.821Z,69.39
2019-03-29T23:08:14.944Z,69.22
2019-03-29T23:10:41.122Z,69.07
2019-03-29T23:13:07.237Z,69.19
2019-03-29T23:15:33.399Z,69.02
2019-03-29T23:17:59.522Z,68.95
2019-03-29T23:20:25.714Z,68.99
2019-03-29T23:22:51.843Z,69.45
2019-03-29T23:25:18.015Z,69.35
2019-03-29T23:27:44.046Z,69.19
2019-03-29T23:30:10.844Z,69.38
2019-03-29T23:32:36.984Z,69.12
2019-03-29T23:35:06.088Z,69.00
2019-03-29T23:37:32.259Z,68.94
2019-03-29T23:39:58.311Z,69.05
2019-03-29T23:42:24.474Z,68.88
2019-03-29T23:44:50.637Z,68.88
2019-03-29T23:47:16.655Z,68.83
2019-03-29T23:49:42.716Z,68.85
2019-03-29T23:52:08.832Z,68.73
2019-03-29T23:54:34.856Z,68.59
2019-03-29T23:57:00.994Z,68.57
2019-03-29T23:59:27.216Z,68.59
